sensor_id;sensor_type;location;lat;lon;timestamp;P1;durP1;ratioP1;P2;durP2;ratioP2
45466;SDS011;31212;49.734;8.490;2023-05-07T00:00:19;3.40;;;1.60;;
45466;SDS011;31212;49.734;8.490;2023-05-07T00:02:46;1.77;;;1.27;;
45466;SDS011;31212;49.734;8.490;2023-05-07T00:05:15;3.45;;;1.60;;
45466;SDS011;31212;49.734;8.490;2023-05-07T00:07:42;1.98;;;1.15;;
45466;SDS011;31212;49.734;8.490;2023-05-07T00:10:09;1.88;;;1.30;;
45466;SDS011;31212;49.734;8.490;2023-05-07T00:12:37;2.60;;;1.40;;
45466;SDS011;31212;49.734;8.490;2023-05-07T00:15:04;2.35;;;1.48;;
45466;SDS011;31212;49.734;8.490;2023-05-07T00:17:33;5.45;;;1.55;;
45466;SDS011;31212;49.734;8.490;2023-05-07T00:19:59;2.33;;;1.30;;
45466;SDS011;31212;49.734;8.490;2023-05-07T00:22:27;1.50;;;1.13;;
45466;SDS011;31212;49.734;8.490;2023-05-07T00:24:55;3.03;;;1.38;;
45466;SDS011;31212;49.734;8.490;2023-05-07T00:27:21;4.55;;;1.45;;
45466;SDS011;31212;49.734;8.490;2023-05-07T00:29:48;3.70;;;1.35;;
45466;SDS011;31212;49.734;8.490;2023-05-07T00:32:14;4.28;;;1.60;;
45466;SDS011;31212;49.734;8.490;2023-05-07T00:34:41;1.85;;;1.23;;
45466;SDS011;31212;49.734;8.490;2023-05-07T00:37:08;2.92;;;1.20;;
45466;SDS011;31212;49.734;8.490;2023-05-07T00:39:38;1.30;;;1.13;;
45466;SDS011;31212;49.734;8.490;2023-05-07T00:42:04;1.50;;;0.80;;
45466;SDS011;31212;49.734;8.490;2023-05-07T00:44:31;3.55;;;1.25;;
45466;SDS011;31212;49.734;8.490;2023-05-07T00:46:58;2.53;;;1.50;;
45466;SDS011;31212;49.734;8.490;2023-05-07T00:49:25;4.65;;;1.38;;
45466;SDS011;31212;49.734;8.490;2023-05-07T00:52:00;4.22;;;1.50;;
45466;SDS011;31212;49.734;8.490;2023-05-07T00:54:27;1.77;;;1.30;;
45466;SDS011;31212;49.734;8.490;2023-05-07T00:56:55;4.38;;;2.03;;
45466;SDS011;31212;49.734;8.490;2023-05-07T00:59:22;2.88;;;1.00;;
45466;SDS011;31212;49.734;8.490;2023-05-07T01:01:49;2.40;;;1.42;;
45466;SDS011;31212;49.734;8.490;2023-05-07T01:04:17;4.93;;;1.50;;
45466;SDS011;31212;49.734;8.490;2023-05-07T01:06:43;3.17;;;1.50;;
45466;SDS011;31212;49.734;8.490;2023-05-07T01:09:11;2.50;;;1.50;;
45466;SDS011;31212;49.734;8.490;2023-05-07T01:11:38;1.27;;;1.17;;
45466;SDS011;31212;49.734;8.490;2023-05-07T01:14:07;2.35;;;1.15;;
45466;SDS011;31212;49.734;8.490;2023-05-07T01:16:36;3.38;;;1.30;;
45466;SDS011;31212;49.734;8.490;2023-05-07T01:19:03;1.83;;;1.30;;
45466;SDS011;31212;49.734;8.490;2023-05-07T01:21:30;2.85;;;1.40;;
45466;SDS011;31212;49.734;8.490;2023-05-07T01:24:03;2.30;;;1.60;;
45466;SDS011;31212;49.734;8.490;2023-05-07T01:26:32;2.25;;;1.65;;
45466;SDS011;31212;49.734;8.490;2023-05-07T01:28:58;4.57;;;1.65;;
45466;SDS011;31212;49.734;8.490;2023-05-07T01:31:25;3.63;;;1.90;;
45466;SDS011;31212;49.734;8.490;2023-05-07T01:33:52;4.55;;;1.55;;
45466;SDS011;31212;49.734;8.490;2023-05-07T01:36:20;2.47;;;1.60;;
45466;SDS011;31212;49.734;8.490;2023-05-07T01:38:51;2.55;;;1.88;;
45466;SDS011;31212;49.734;8.490;2023-05-07T01:41:19;4.88;;;1.80;;
45466;SDS011;31212;49.734;8.490;2023-05-07T01:43:46;5.30;;;1.80;;
45466;SDS011;31212;49.734;8.490;2023-05-07T01:46:13;3.38;;;1.83;;
45466;SDS011;31212;49.734;8.490;2023-05-07T01:48:41;4.75;;;2.10;;
45466;SDS011;31212;49.734;8.490;2023-05-07T01:51:11;3.45;;;2.13;;
45466;SDS011;31212;49.734;8.490;2023-05-07T01:53:37;4.03;;;1.48;;
45466;SDS011;31212;49.734;8.490;2023-05-07T01:56:06;2.13;;;1.27;;
45466;SDS011;31212;49.734;8.490;2023-05-07T01:58:36;3.58;;;2.03;;
45466;SDS011;31212;49.734;8.490;2023-05-07T02:01:03;3.38;;;1.75;;
45466;SDS011;31212;49.734;8.490;2023-05-07T02:03:29;3.47;;;1.55;;
45466;SDS011;31212;49.734;8.490;2023-05-07T02:06:05;3.58;;;1.65;;
45466;SDS011;31212;49.734;8.490;2023-05-07T02:08:37;2.22;;;1.65;;
45466;SDS011;31212;49.734;8.490;2023-05-07T02:11:03;2.22;;;1.45;;
45466;SDS011;31212;49.734;8.490;2023-05-07T02:13:31;2.95;;;2.05;;
45466;SDS011;31212;49.734;8.490;2023-05-07T02:16:00;3.17;;;1.73;;
45466;SDS011;31212;49.734;8.490;2023-05-07T02:18:27;4.45;;;1.70;;
45466;SDS011;31212;49.734;8.490;2023-05-07T02:20:54;1.80;;;1.45;;
45466;SDS011;31212;49.734;8.490;2023-05-07T02:23:21;2.60;;;1.95;;
45466;SDS011;31212;49.734;8.490;2023-05-07T02:25:47;2.60;;;1.80;;
45466;SDS011;31212;49.734;8.490;2023-05-07T02:28:14;4.82;;;1.85;;
45466;SDS011;31212;49.734;8.490;2023-05-07T02:30:49;4.68;;;2.28;;
45466;SDS011;31212;49.734;8.490;2023-05-07T02:33:17;2.15;;;1.55;;
45466;SDS011;31212;49.734;8.490;2023-05-07T02:35:44;3.50;;;1.92;;
45466;SDS011;31212;49.734;8.490;2023-05-07T02:38:13;1.95;;;1.67;;
45466;SDS011;31212;49.734;8.490;2023-05-07T02:40:40;2.63;;;1.92;;
45466;SDS011;31212;49.734;8.490;2023-05-07T02:43:07;2.88;;;2.08;;
45466;SDS011;31212;49.734;8.490;2023-05-07T02:45:34;3.53;;;2.17;;
45466;SDS011;31212;49.734;8.490;2023-05-07T02:48:02;2.17;;;1.85;;
45466;SDS011;31212;49.734;8.490;2023-05-07T02:50:31;4.45;;;2.08;;
45466;SDS011;31212;49.734;8.490;2023-05-07T02:52:58;3.53;;;2.10;;
45466;SDS011;31212;49.734;8.490;2023-05-07T02:55:25;2.05;;;1.67;;
45466;SDS011;31212;49.734;8.490;2023-05-07T02:57:51;4.22;;;2.22;;
45466;SDS011;31212;49.734;8.490;2023-05-07T03:00:18;2.58;;;1.50;;
45466;SDS011;31212;49.734;8.490;2023-05-07T03:02:53;3.53;;;2.05;;
45466;SDS011;31212;49.734;8.490;2023-05-07T03:05:21;3.30;;;1.90;;
45466;SDS011;31212;49.734;8.490;2023-05-07T03:07:49;3.22;;;2.17;;
45466;SDS011;31212;49.734;8.490;2023-05-07T03:10:15;3.47;;;2.03;;
45466;SDS011;31212;49.734;8.490;2023-05-07T03:12:42;3.55;;;2.00;;
45466;SDS011;31212;49.734;8.490;2023-05-07T03:15:13;4.47;;;2.80;;
45466;SDS011;31212;49.734;8.490;2023-05-07T03:17:40;3.50;;;2.78;;
45466;SDS011;31212;49.734;8.490;2023-05-07T03:20:07;2.25;;;1.75;;
45466;SDS011;31212;49.734;8.490;2023-05-07T03:22:35;3.05;;;2.22;;
45466;SDS011;31212;49.734;8.490;2023-05-07T03:25:03;2.88;;;2.05;;
45466;SDS011;31212;49.734;8.490;2023-05-07T03:27:30;3.80;;;2.33;;
45466;SDS011;31212;49.734;8.490;2023-05-07T03:29:57;4.63;;;2.53;;
45466;SDS011;31212;49.734;8.490;2023-05-07T03:32:24;2.83;;;2.00;;
45466;SDS011;31212;49.734;8.490;2023-05-07T03:34:50;4.70;;;2.80;;
45466;SDS011;31212;49.734;8.490;2023-05-07T03:37:17;5.18;;;2.30;;
45466;SDS011;31212;49.734;8.490;2023-05-07T03:39:44;6.47;;;2.25;;
45466;SDS011;31212;49.734;8.490;2023-05-07T03:42:11;3.75;;;2.72;;
45466;SDS011;31212;49.734;8.490;2023-05-07T03:44:38;5.30;;;2.58;;
45466;SDS011;31212;49.734;8.490;2023-05-07T03:47:05;3.85;;;2.35;;
45466;SDS011;31212;49.734;8.490;2023-05-07T03:49:31;5.03;;;2.72;;
45466;SDS011;31212;49.734;8.490;2023-05-07T03:51:58;4.40;;;2.35;;
45466;SDS011;31212;49.734;8.490;2023-05-07T03:54:25;4.13;;;2.25;;
45466;SDS011;31212;49.734;8.490;2023-05-07T03:56:51;6.22;;;2.60;;
45466;SDS011;31212;49.734;8.490;2023-05-07T03:59:19;3.50;;;2.17;;
45466;SDS011;31212;49.734;8.490;2023-05-07T04:01:47;4.30;;;2.45;;
45466;SDS011;31212;49.734;8.490;2023-05-07T04:04:16;7.85;;;2.42;;
45466;SDS011;31212;49.734;8.490;2023-05-07T04:06:43;4.38;;;2.38;;
45466;SDS011;31212;49.734;8.490;2023-05-07T04:09:10;3.47;;;2.35;;
45466;SDS011;31212;49.734;8.490;2023-05-07T04:11:37;5.43;;;2.55;;
45466;SDS011;31212;49.734;8.490;2023-05-07T04:14:07;10.82;;;2.78;;
45466;SDS011;31212;49.734;8.490;2023-05-07T04:16:35;4.97;;;2.58;;
45466;SDS011;31212;49.734;8.490;2023-05-07T04:19:02;6.35;;;2.20;;
45466;SDS011;31212;49.734;8.490;2023-05-07T04:21:29;3.97;;;2.20;;
45466;SDS011;31212;49.734;8.490;2023-05-07T04:23:58;5.20;;;2.17;;
45466;SDS011;31212;49.734;8.490;2023-05-07T04:26:24;4.15;;;2.42;;
45466;SDS011;31212;49.734;8.490;2023-05-07T04:28:51;3.40;;;2.55;;
45466;SDS011;31212;49.734;8.490;2023-05-07T04:31:17;3.33;;;2.38;;
45466;SDS011;31212;49.734;8.490;2023-05-07T04:33:49;3.25;;;2.30;;
45466;SDS011;31212;49.734;8.490;2023-05-07T04:36:16;3.90;;;2.10;;
45466;SDS011;31212;49.734;8.490;2023-05-07T04:38:49;3.53;;;2.28;;
45466;SDS011;31212;49.734;8.490;2023-05-07T04:41:17;3.75;;;2.03;;
45466;SDS011;31212;49.734;8.490;2023-05-07T04:43:43;2.13;;;1.67;;
45466;SDS011;31212;49.734;8.490;2023-05-07T04:46:12;6.20;;;2.35;;
45466;SDS011;31212;49.734;8.490;2023-05-07T04:48:39;3.92;;;2.55;;
45466;SDS011;31212;49.734;8.490;2023-05-07T04:51:08;2.67;;;2.40;;
45466;SDS011;31212;49.734;8.490;2023-05-07T04:53:34;2.72;;;1.83;;
45466;SDS011;31212;49.734;8.490;2023-05-07T04:56:01;4.35;;;2.35;;
45466;SDS011;31212;49.734;8.490;2023-05-07T04:58:37;3.38;;;1.92;;
45466;SDS011;31212;49.734;8.490;2023-05-07T05:01:04;3.42;;;2.13;;
45466;SDS011;31212;49.734;8.490;2023-05-07T05:03:31;3.20;;;2.17;;
45466;SDS011;31212;49.734;8.490;2023-05-07T05:05:58;2.83;;;2.40;;
45466;SDS011;31212;49.734;8.490;2023-05-07T05:08:29;3.72;;;2.30;;
45466;SDS011;31212;49.734;8.490;2023-05-07T05:10:56;7.50;;;1.98;;
45466;SDS011;31212;49.734;8.490;2023-05-07T05:13:23;1.75;;;1.60;;
45466;SDS011;31212;49.734;8.490;2023-05-07T05:15:50;3.80;;;2.03;;
45466;SDS011;31212;49.734;8.490;2023-05-07T05:18:17;2.53;;;1.90;;
45466;SDS011;31212;49.734;8.490;2023-05-07T05:20:44;5.72;;;2.40;;
45466;SDS011;31212;49.734;8.490;2023-05-07T05:23:11;5.47;;;2.22;;
45466;SDS011;31212;49.734;8.490;2023-05-07T05:25:39;3.15;;;2.00;;
45466;SDS011;31212;49.734;8.490;2023-05-07T05:28:09;7.82;;;2.35;;
45466;SDS011;31212;49.734;8.490;2023-05-07T05:30:35;5.25;;;2.05;;
45466;SDS011;31212;49.734;8.490;2023-05-07T05:33:02;3.33;;;1.83;;
45466;SDS011;31212;49.734;8.490;2023-05-07T05:35:29;2.92;;;2.13;;
45466;SDS011;31212;49.734;8.490;2023-05-07T05:37:57;5.15;;;2.80;;
45466;SDS011;31212;49.734;8.490;2023-05-07T05:40:24;3.97;;;2.38;;
45466;SDS011;31212;49.734;8.490;2023-05-07T05:42:51;3.22;;;2.28;;
45466;SDS011;31212;49.734;8.490;2023-05-07T05:45:18;10.18;;;2.50;;
45466;SDS011;31212;49.734;8.490;2023-05-07T05:47:45;5.82;;;2.17;;
45466;SDS011;31212;49.734;8.490;2023-05-07T05:50:12;4.03;;;1.83;;
45466;SDS011;31212;49.734;8.490;2023-05-07T05:52:39;3.28;;;2.10;;
45466;SDS011;31212;49.734;8.490;2023-05-07T05:55:07;4.95;;;2.78;;
45466;SDS011;31212;49.734;8.490;2023-05-07T05:57:35;3.65;;;1.75;;
45466;SDS011;31212;49.734;8.490;2023-05-07T06:00:04;2.78;;;1.90;;
45466;SDS011;31212;49.734;8.490;2023-05-07T06:02:43;2.35;;;1.65;;
45466;SDS011;31212;49.734;8.490;2023-05-07T06:05:12;2.78;;;1.95;;
45466;SDS011;31212;49.734;8.490;2023-05-07T06:07:39;2.03;;;1.63;;
45466;SDS011;31212;49.734;8.490;2023-05-07T06:10:06;2.97;;;1.63;;
45466;SDS011;31212;49.734;8.490;2023-05-07T06:12:34;2.90;;;1.92;;
45466;SDS011;31212;49.734;8.490;2023-05-07T06:15:01;3.08;;;1.73;;
45466;SDS011;31212;49.734;8.490;2023-05-07T06:17:29;4.45;;;2.13;;
45466;SDS011;31212;49.734;8.490;2023-05-07T06:19:56;1.77;;;1.60;;
45466;SDS011;31212;49.734;8.490;2023-05-07T06:22:22;1.98;;;1.70;;
45466;SDS011;31212;49.734;8.490;2023-05-07T06:24:49;4.10;;;1.70;;
45466;SDS011;31212;49.734;8.490;2023-05-07T06:27:16;3.72;;;2.30;;
45466;SDS011;31212;49.734;8.490;2023-05-07T06:29:44;3.90;;;2.20;;
45466;SDS011;31212;49.734;8.490;2023-05-07T06:32:14;6.82;;;2.28;;
45466;SDS011;31212;49.734;8.490;2023-05-07T06:34:44;3.95;;;1.90;;
45466;SDS011;31212;49.734;8.490;2023-05-07T06:37:12;4.80;;;2.47;;
45466;SDS011;31212;49.734;8.490;2023-05-07T06:40:00;3.45;;;1.45;;
45466;SDS011;31212;49.734;8.490;2023-05-07T06:42:29;2.25;;;1.73;;
45466;SDS011;31212;49.734;8.490;2023-05-07T06:45:00;3.10;;;1.50;;
45466;SDS011;31212;49.734;8.490;2023-05-07T06:47:30;3.88;;;1.70;;
45466;SDS011;31212;49.734;8.490;2023-05-07T06:49:58;1.73;;;1.30;;
45466;SDS011;31212;49.734;8.490;2023-05-07T06:52:29;3.17;;;1.80;;
45466;SDS011;31212;49.734;8.490;2023-05-07T06:54:55;3.03;;;1.60;;
45466;SDS011;31212;49.734;8.490;2023-05-07T06:57:24;3.70;;;1.92;;
45466;SDS011;31212;49.734;8.490;2023-05-07T06:59:50;2.63;;;1.70;;
45466;SDS011;31212;49.734;8.490;2023-05-07T07:02:18;1.90;;;1.40;;
45466;SDS011;31212;49.734;8.490;2023-05-07T07:04:46;3.17;;;1.80;;
45466;SDS011;31212;49.734;8.490;2023-05-07T07:07:14;2.53;;;1.50;;
45466;SDS011;31212;49.734;8.490;2023-05-07T07:09:43;2.10;;;1.50;;
45466;SDS011;31212;49.734;8.490;2023-05-07T07:12:12;1.75;;;1.50;;
45466;SDS011;31212;49.734;8.490;2023-05-07T07:14:40;2.67;;;1.52;;
45466;SDS011;31212;49.734;8.490;2023-05-07T07:17:07;2.53;;;1.83;;
45466;SDS011;31212;49.734;8.490;2023-05-07T07:19:33;3.47;;;1.80;;
45466;SDS011;31212;49.734;8.490;2023-05-07T07:22:02;5.72;;;2.08;;
45466;SDS011;31212;49.734;8.490;2023-05-07T07:24:30;3.92;;;2.03;;
45466;SDS011;31212;49.734;8.490;2023-05-07T07:27:01;1.60;;;1.50;;
45466;SDS011;31212;49.734;8.490;2023-05-07T07:29:28;1.88;;;1.58;;
45466;SDS011;31212;49.734;8.490;2023-05-07T07:31:55;2.10;;;1.38;;
45466;SDS011;31212;49.734;8.490;2023-05-07T07:34:22;1.80;;;1.50;;
45466;SDS011;31212;49.734;8.490;2023-05-07T07:36:49;2.72;;;1.58;;
45466;SDS011;31212;49.734;8.490;2023-05-07T07:39:17;1.90;;;1.50;;
45466;SDS011;31212;49.734;8.490;2023-05-07T07:41:47;1.67;;;1.17;;
45466;SDS011;31212;49.734;8.490;2023-05-07T07:44:15;3.80;;;1.20;;
45466;SDS011;31212;49.734;8.490;2023-05-07T07:46:47;1.42;;;1.30;;
45466;SDS011;31212;49.734;8.490;2023-05-07T07:49:14;1.80;;;1.38;;
45466;SDS011;31212;49.734;8.490;2023-05-07T07:51:42;1.55;;;1.27;;
45466;SDS011;31212;49.734;8.490;2023-05-07T07:54:10;1.85;;;1.33;;
45466;SDS011;31212;49.734;8.490;2023-05-07T07:56:36;2.97;;;1.42;;
45466;SDS011;31212;49.734;8.490;2023-05-07T07:59:06;1.30;;;1.20;;
45466;SDS011;31212;49.734;8.490;2023-05-07T08:01:34;1.30;;;1.20;;
45466;SDS011;31212;49.734;8.490;2023-05-07T08:04:01;1.83;;;1.33;;
45466;SDS011;31212;49.734;8.490;2023-05-07T08:06:29;3.90;;;1.50;;
45466;SDS011;31212;49.734;8.490;2023-05-07T08:08:56;1.52;;;1.02;;
45466;SDS011;31212;49.734;8.490;2023-05-07T08:11:22;2.28;;;1.45;;
45466;SDS011;31212;49.734;8.490;2023-05-07T08:13:52;4.07;;;1.90;;
45466;SDS011;31212;49.734;8.490;2023-05-07T08:16:20;5.80;;;1.50;;
45466;SDS011;31212;49.734;8.490;2023-05-07T08:18:46;2.40;;;1.63;;
45466;SDS011;31212;49.734;8.490;2023-05-07T08:21:13;1.33;;;1.23;;
45466;SDS011;31212;49.734;8.490;2023-05-07T08:23:41;2.05;;;1.55;;
45466;SDS011;31212;49.734;8.490;2023-05-07T08:26:08;2.70;;;1.10;;
45466;SDS011;31212;49.734;8.490;2023-05-07T08:28:36;3.03;;;1.30;;
45466;SDS011;31212;49.734;8.490;2023-05-07T08:31:02;1.48;;;0.95;;
45466;SDS011;31212;49.734;8.490;2023-05-07T08:33:35;2.20;;;1.25;;
45466;SDS011;31212;49.734;8.490;2023-05-07T08:36:02;1.77;;;1.23;;
45466;SDS011;31212;49.734;8.490;2023-05-07T08:38:29;2.35;;;1.48;;
45466;SDS011;31212;49.734;8.490;2023-05-07T08:40:55;2.97;;;1.23;;
45466;SDS011;31212;49.734;8.490;2023-05-07T08:43:23;2.45;;;1.48;;
45466;SDS011;31212;49.734;8.490;2023-05-07T08:45:53;2.72;;;1.30;;
45466;SDS011;31212;49.734;8.490;2023-05-07T08:48:25;2.33;;;1.25;;
45466;SDS011;31212;49.734;8.490;2023-05-07T08:51:03;8.43;;;1.50;;
45466;SDS011;31212;49.734;8.490;2023-05-07T08:53:30;1.88;;;1.58;;
45466;SDS011;31212;49.734;8.490;2023-05-07T08:55:57;4.45;;;2.08;;
45466;SDS011;31212;49.734;8.490;2023-05-07T08:58:25;1.88;;;1.15;;
45466;SDS011;31212;49.734;8.490;2023-05-07T09:00:51;2.72;;;1.38;;
45466;SDS011;31212;49.734;8.490;2023-05-07T09:03:21;1.48;;;1.25;;
45466;SDS011;31212;49.734;8.490;2023-05-07T09:05:50;6.40;;;2.00;;
45466;SDS011;31212;49.734;8.490;2023-05-07T09:08:23;1.88;;;1.30;;
45466;SDS011;31212;49.734;8.490;2023-05-07T09:10:51;3.00;;;1.45;;
45466;SDS011;31212;49.734;8.490;2023-05-07T09:13:18;1.90;;;1.35;;
45466;SDS011;31212;49.734;8.490;2023-05-07T09:15:44;3.85;;;1.33;;
45466;SDS011;31212;49.734;8.490;2023-05-07T09:18:11;2.78;;;1.52;;
45466;SDS011;31212;49.734;8.490;2023-05-07T09:20:39;2.17;;;1.45;;
45466;SDS011;31212;49.734;8.490;2023-05-07T09:23:07;3.13;;;1.77;;
45466;SDS011;31212;49.734;8.490;2023-05-07T09:25:37;1.83;;;1.10;;
45466;SDS011;31212;49.734;8.490;2023-05-07T09:28:11;2.63;;;1.60;;
45466;SDS011;31212;49.734;8.490;2023-05-07T09:30:37;2.15;;;1.45;;
45466;SDS011;31212;49.734;8.490;2023-05-07T09:33:07;1.67;;;1.17;;
45466;SDS011;31212;49.734;8.490;2023-05-07T09:35:38;3.63;;;1.30;;
45466;SDS011;31212;49.734;8.490;2023-05-07T09:38:10;2.85;;;1.90;;
45466;SDS011;31212;49.734;8.490;2023-05-07T09:40:40;2.40;;;1.48;;
45466;SDS011;31212;49.734;8.490;2023-05-07T09:45:44;2.03;;;1.45;;
45466;SDS011;31212;49.734;8.490;2023-05-07T09:48:17;1.75;;;1.40;;
45466;SDS011;31212;49.734;8.490;2023-05-07T09:50:48;2.30;;;1.52;;
45466;SDS011;31212;49.734;8.490;2023-05-07T09:53:20;1.48;;;1.33;;
45466;SDS011;31212;49.734;8.490;2023-05-07T09:55:50;1.85;;;1.05;;
45466;SDS011;31212;49.734;8.490;2023-05-07T09:58:19;1.20;;;1.10;;
45466;SDS011;31212;49.734;8.490;2023-05-07T10:00:48;1.67;;;1.30;;
45466;SDS011;31212;49.734;8.490;2023-05-07T10:03:16;1.75;;;0.93;;
45466;SDS011;31212;49.734;8.490;2023-05-07T10:05:53;1.70;;;1.38;;
45466;SDS011;31212;49.734;8.490;2023-05-07T10:08:21;1.92;;;1.45;;
45466;SDS011;31212;49.734;8.490;2023-05-07T10:10:52;1.48;;;1.38;;
45466;SDS011;31212;49.734;8.490;2023-05-07T10:13:22;3.38;;;1.30;;
45466;SDS011;31212;49.734;8.490;2023-05-07T10:15:53;2.05;;;1.45;;
45466;SDS011;31212;49.734;8.490;2023-05-07T10:18:22;3.75;;;1.50;;
45466;SDS011;31212;49.734;8.490;2023-05-07T10:20:57;3.30;;;1.27;;
45466;SDS011;31212;49.734;8.490;2023-05-07T10:26:00;3.05;;;1.67;;
45466;SDS011;31212;49.734;8.490;2023-05-07T10:28:31;1.88;;;1.52;;
45466;SDS011;31212;49.734;8.490;2023-05-07T10:31:08;2.47;;;1.52;;
45466;SDS011;31212;49.734;8.490;2023-05-07T10:33:46;0.98;;;0.98;;
45466;SDS011;31212;49.734;8.490;2023-05-07T10:36:18;2.08;;;1.30;;
45466;SDS011;31212;49.734;8.490;2023-05-07T10:38:48;2.03;;;1.60;;
45466;SDS011;31212;49.734;8.490;2023-05-07T10:41:17;1.55;;;1.23;;
45466;SDS011;31212;49.734;8.490;2023-05-07T10:43:45;1.88;;;1.52;;
45466;SDS011;31212;49.734;8.490;2023-05-07T10:46:19;3.58;;;1.70;;
45466;SDS011;31212;49.734;8.490;2023-05-07T10:49:06;3.03;;;1.30;;
45466;SDS011;31212;49.734;8.490;2023-05-07T10:51:45;2.00;;;1.30;;
45466;SDS011;31212;49.734;8.490;2023-05-07T10:54:26;2.55;;;1.40;;
45466;SDS011;31212;49.734;8.490;2023-05-07T10:57:00;1.50;;;1.40;;
45466;SDS011;31212;49.734;8.490;2023-05-07T11:03:25;2.70;;;1.60;;
45466;SDS011;31212;49.734;8.490;2023-05-07T11:06:09;1.50;;;1.40;;
45466;SDS011;31212;49.734;8.490;2023-05-07T11:08:53;2.15;;;1.52;;
45466;SDS011;31212;49.734;8.490;2023-05-07T11:11:44;3.65;;;1.30;;
45466;SDS011;31212;49.734;8.490;2023-05-07T11:17:22;0.90;;;0.90;;
45466;SDS011;31212;49.734;8.490;2023-05-07T11:19:56;1.35;;;1.23;;
45466;SDS011;31212;49.734;8.490;2023-05-07T11:22:35;3.05;;;1.33;;
45466;SDS011;31212;49.734;8.490;2023-05-07T11:25:17;1.83;;;1.20;;
45466;SDS011;31212;49.734;8.490;2023-05-07T11:27:45;1.60;;;1.30;;
45466;SDS011;31212;49.734;8.490;2023-05-07T11:30:17;2.38;;;1.20;;
45466;SDS011;31212;49.734;8.490;2023-05-07T11:32:48;1.50;;;1.20;;
45466;SDS011;31212;49.734;8.490;2023-05-07T11:35:16;2.05;;;1.38;;
45466;SDS011;31212;49.734;8.490;2023-05-07T11:37:46;2.13;;;1.33;;
45466;SDS011;31212;49.734;8.490;2023-05-07T11:40:14;2.63;;;1.38;;
45466;SDS011;31212;49.734;8.490;2023-05-07T11:42:40;2.00;;;1.40;;
45466;SDS011;31212;49.734;8.490;2023-05-07T11:45:08;6.15;;;1.38;;
45466;SDS011;31212;49.734;8.490;2023-05-07T11:47:36;1.48;;;1.20;;
45466;SDS011;31212;49.734;8.490;2023-05-07T11:50:06;1.48;;;1.27;;
45466;SDS011;31212;49.734;8.490;2023-05-07T11:52:35;3.03;;;1.80;;
45466;SDS011;31212;49.734;8.490;2023-05-07T11:55:03;2.25;;;1.50;;
45466;SDS011;31212;49.734;8.490;2023-05-07T11:57:32;1.42;;;1.17;;
45466;SDS011;31212;49.734;8.490;2023-05-07T12:00:00;1.48;;;1.20;;
45466;SDS011;31212;49.734;8.490;2023-05-07T12:02:39;1.95;;;1.70;;
45466;SDS011;31212;49.734;8.490;2023-05-07T12:05:07;1.33;;;1.15;;
45466;SDS011;31212;49.734;8.490;2023-05-07T12:07:33;2.15;;;1.70;;
45466;SDS011;31212;49.734;8.490;2023-05-07T12:10:03;1.85;;;1.45;;
45466;SDS011;31212;49.734;8.490;2023-05-07T12:12:31;2.17;;;1.33;;
45466;SDS011;31212;49.734;8.490;2023-05-07T12:15:03;1.98;;;1.60;;
45466;SDS011;31212;49.734;8.490;2023-05-07T12:17:30;5.00;;;1.98;;
45466;SDS011;31212;49.734;8.490;2023-05-07T12:19:58;1.95;;;1.58;;
45466;SDS011;31212;49.734;8.490;2023-05-07T12:22:25;3.25;;;1.40;;
45466;SDS011;31212;49.734;8.490;2023-05-07T12:24:56;5.38;;;2.00;;
45466;SDS011;31212;49.734;8.490;2023-05-07T12:27:23;2.10;;;1.60;;
45466;SDS011;31212;49.734;8.490;2023-05-07T12:29:51;1.70;;;1.50;;
45466;SDS011;31212;49.734;8.490;2023-05-07T12:32:18;2.15;;;1.60;;
45466;SDS011;31212;49.734;8.490;2023-05-07T12:34:46;3.15;;;1.45;;
45466;SDS011;31212;49.734;8.490;2023-05-07T12:37:22;2.22;;;1.70;;
45466;SDS011;31212;49.734;8.490;2023-05-07T12:39:49;1.52;;;1.27;;
45466;SDS011;31212;49.734;8.490;2023-05-07T12:42:32;2.35;;;1.33;;
45466;SDS011;31212;49.734;8.490;2023-05-07T12:44:59;2.97;;;1.48;;
45466;SDS011;31212;49.734;8.490;2023-05-07T12:47:27;1.83;;;1.73;;
45466;SDS011;31212;49.734;8.490;2023-05-07T12:49:54;1.42;;;1.33;;
45466;SDS011;31212;49.734;8.490;2023-05-07T12:52:21;1.42;;;1.30;;
45466;SDS011;31212;49.734;8.490;2023-05-07T12:54:48;3.10;;;1.85;;
45466;SDS011;31212;49.734;8.490;2023-05-07T12:57:15;4.65;;;2.03;;
45466;SDS011;31212;49.734;8.490;2023-05-07T12:59:45;1.98;;;1.33;;
45466;SDS011;31212;49.734;8.490;2023-05-07T13:02:11;2.65;;;1.60;;
45466;SDS011;31212;49.734;8.490;2023-05-07T13:04:40;1.67;;;1.52;;
45466;SDS011;31212;49.734;8.490;2023-05-07T13:07:06;4.47;;;1.90;;
45466;SDS011;31212;49.734;8.490;2023-05-07T13:09:34;2.42;;;1.83;;
45466;SDS011;31212;49.734;8.490;2023-05-07T13:12:02;2.30;;;1.52;;
45466;SDS011;31212;49.734;8.490;2023-05-07T13:14:28;1.80;;;1.52;;
45466;SDS011;31212;49.734;8.490;2023-05-07T13:16:55;2.38;;;1.80;;
45466;SDS011;31212;49.734;8.490;2023-05-07T13:19:21;4.38;;;1.88;;
45466;SDS011;31212;49.734;8.490;2023-05-07T13:21:48;2.63;;;1.80;;
45466;SDS011;31212;49.734;8.490;2023-05-07T13:24:15;2.28;;;1.30;;
45466;SDS011;31212;49.734;8.490;2023-05-07T13:26:43;2.47;;;1.75;;
45466;SDS011;31212;49.734;8.490;2023-05-07T13:29:09;2.33;;;1.55;;
45466;SDS011;31212;49.734;8.490;2023-05-07T13:31:36;2.40;;;1.58;;
45466;SDS011;31212;49.734;8.490;2023-05-07T13:34:07;2.97;;;1.67;;
45466;SDS011;31212;49.734;8.490;2023-05-07T13:36:33;3.30;;;1.85;;
45466;SDS011;31212;49.734;8.490;2023-05-07T13:39:02;3.85;;;2.00;;
45466;SDS011;31212;49.734;8.490;2023-05-07T13:41:28;3.15;;;1.90;;
45466;SDS011;31212;49.734;8.490;2023-05-07T13:43:56;2.67;;;1.60;;
45466;SDS011;31212;49.734;8.490;2023-05-07T13:46:23;3.15;;;2.10;;
45466;SDS011;31212;49.734;8.490;2023-05-07T13:48:49;3.00;;;2.10;;
45466;SDS011;31212;49.734;8.490;2023-05-07T13:51:16;3.10;;;2.05;;
45466;SDS011;31212;49.734;8.490;2023-05-07T13:53:43;3.17;;;2.20;;
45466;SDS011;31212;49.734;8.490;2023-05-07T13:56:09;1.55;;;1.45;;
45466;SDS011;31212;49.734;8.490;2023-05-07T13:58:36;1.83;;;1.63;;
45466;SDS011;31212;49.734;8.490;2023-05-07T14:01:04;2.83;;;1.60;;
45466;SDS011;31212;49.734;8.490;2023-05-07T14:03:30;1.77;;;1.50;;
45466;SDS011;31212;49.734;8.490;2023-05-07T14:05:58;4.05;;;2.00;;
45466;SDS011;31212;49.734;8.490;2023-05-07T14:08:26;3.33;;;1.73;;
45466;SDS011;31212;49.734;8.490;2023-05-07T14:10:53;3.42;;;1.70;;
45466;SDS011;31212;49.734;8.490;2023-05-07T14:13:19;2.10;;;1.77;;
45466;SDS011;31212;49.734;8.490;2023-05-07T14:15:46;2.90;;;1.40;;
45466;SDS011;31212;49.734;8.490;2023-05-07T14:18:15;3.70;;;1.90;;
45466;SDS011;31212;49.734;8.490;2023-05-07T14:20:42;2.25;;;1.65;;
45466;SDS011;31212;49.734;8.490;2023-05-07T14:23:11;2.53;;;1.60;;
45466;SDS011;31212;49.734;8.490;2023-05-07T14:25:37;3.28;;;1.88;;
45466;SDS011;31212;49.734;8.490;2023-05-07T14:28:04;3.78;;;1.75;;
45466;SDS011;31212;49.734;8.490;2023-05-07T14:30:31;2.38;;;1.45;;
45466;SDS011;31212;49.734;8.490;2023-05-07T14:32:57;2.58;;;1.60;;
45466;SDS011;31212;49.734;8.490;2023-05-07T14:35:25;3.22;;;1.80;;
45466;SDS011;31212;49.734;8.490;2023-05-07T14:37:52;1.70;;;1.60;;
45466;SDS011;31212;49.734;8.490;2023-05-07T14:40:18;2.42;;;1.50;;
45466;SDS011;31212;49.734;8.490;2023-05-07T14:42:45;1.80;;;1.50;;
45466;SDS011;31212;49.734;8.490;2023-05-07T14:45:11;2.72;;;2.05;;
45466;SDS011;31212;49.734;8.490;2023-05-07T14:47:37;3.47;;;1.85;;
45466;SDS011;31212;49.734;8.490;2023-05-07T14:50:05;1.83;;;1.67;;
45466;SDS011;31212;49.734;8.490;2023-05-07T14:52:33;3.00;;;1.83;;
45466;SDS011;31212;49.734;8.490;2023-05-07T14:54:59;3.03;;;2.03;;
45466;SDS011;31212;49.734;8.490;2023-05-07T14:57:26;3.35;;;2.00;;
45466;SDS011;31212;49.734;8.490;2023-05-07T14:59:52;2.55;;;1.80;;
45466;SDS011;31212;49.734;8.490;2023-05-07T15:02:19;5.38;;;1.90;;
45466;SDS011;31212;49.734;8.490;2023-05-07T15:04:46;5.20;;;1.95;;
45466;SDS011;31212;49.734;8.490;2023-05-07T15:07:12;2.45;;;1.73;;